Queen Of Cowichan — CZ4990 — position and weather

sailwx.info

Track history (hours):
 
Tides and Currents Weather Stations Pressure Air Temp Water Temp Dewpoint Dewpoint Depression Visibility Wind Speed Wind Dir Waves Ship Positions

Queen Of Cowichan

Last reported at 2016-Feb-06 20:33 UTC. Time now 2016-Feb-06 20:47 UTC.
Position N 49°23' W 123°16'.

Length 139 m; draft 5.5 m.

Type: Passenger vessel. MMSI: 316001251.

Date/timePositionNaut miles runAvg speedWind from/ knotsBaromVisibWave heightAir tempDewpointWater temp
2016-Feb-06 20:33N 49°23' W 123°16'1413.6
2016-Feb-06 19:34N 49°17' W 123°35'1511.7
2016-Feb-06 18:15N 49°12' W 123°57'1216.9
2016-Feb-06 17:33N 49°16' W 123°41'1717.4
2016-Feb-06 16:33N 49°23' W 123°16'9 8.6
2016-Feb-06 15:34N 49°18' W 123°27'2020.1
2016-Feb-06 14:33N 49°12' W 123°57'1 0.6
2016-Feb-06 13:30N 49°12' W 123°57'0 0.0
2016-Feb-06 12:24N 49°12' W 123°57'0 0.0
2016-Feb-06 11:33N 49°12' W 123°57'0 0.0
2016-Feb-06 10:30N 49°12' W 123°57'0 0.0
2016-Feb-06 09:12N 49°12' W 123°57'0 0.0
2016-Feb-06 08:24N 49°12' W 123°57'0 0.0
2016-Feb-06 07:26N 49°12' W 123°57'1415.7
2016-Feb-06 06:33N 49°17' W 123°38'1515.1
2016-Feb-06 05:34N 49°23' W 123°16'1110.5
2016-Feb-06 04:34N 49°18' W 123°31'1818.4
2016-Feb-06 03:33N 49°12' W 123°57'4 3.7
2016-Feb-06 02:33N 49°14' W 123°53'2019.6
2016-Feb-06 01:34N 49°19' W 123°24'6 6.1
2016-Feb-06 00:33N 49°23' W 123°17'1918.6
2016-Feb-05 23:34N 49°15' W 123°42'1010.4
2016-Feb-05 22:33N 49°12' W 123°57'1615.9
2016-Feb-05 21:33N 49°18' W 123°35'1313.0
2016-Feb-05 20:33N 49°23' W 123°16'1313.0
2016-Feb-05 19:34N 49°17' W 123°34'1616.0
2016-Feb-05 18:33N 49°12' W 123°57'1211.9
2016-Feb-05 17:33N 49°16' W 123°41'1717.1
2016-Feb-05 16:33N 49°23' W 123°16'9 8.8
2016-Feb-05 15:34N 49°18' W 123°28'1919.4
2016-Feb-05 14:33N 49°12' W 123°56'1 0.9
2016-Feb-05 13:21N 49°12' W 123°57'0 0.0
2016-Feb-05 12:33N 49°12' W 123°57'0 0.0
2016-Feb-05 11:33N 49°12' W 123°57'0 0.0
2016-Feb-05 10:33N 49°12' W 123°57'0 0.0
2016-Feb-05 09:33N 49°12' W 123°57'0 0.0
2016-Feb-05 08:33N 49°12' W 123°57'0 0.0
2016-Feb-05 07:33N 49°12' W 123°57'0 0.0
2016-Feb-05 05:27N 49°12' W 123°57'0 0.0
2016-Feb-05 04:27N 49°12' W 123°57'0 0.0
2016-Feb-05 03:33N 49°12' W 123°57'2 1.6
2016-Feb-05 02:34N 49°13' W 123°55'2019.8
2016-Feb-05 01:33N 49°19' W 123°27'8 8.0
2016-Feb-05 00:33N 49°23' W 123°17'1918.6
2016-Feb-04 23:33N 49°15' W 123°42'10 8.7
2016-Feb-04 22:22N 49°12' W 123°57'1214.7
2016-Feb-04 21:34N 49°17' W 123°41'1717.1
2016-Feb-04 20:33N 49°23' W 123°16'9 9.3
2016-Feb-04 19:33N 49°18' W 123°28'1919.5
2016-Feb-04 18:33N 49°12' W 123°57'9 9.5
2016-Feb-04 17:33N 49°16' W 123°44'1919.2
2016-Feb-04 16:34N 49°23' W 123°16'9 8.7
2016-Feb-04 15:33N 49°18' W 123°27'2020.0
2016-Feb-04 14:33N 49°12' W 123°57'1 0.1
2016-Feb-04 04:26N 49°12' W 123°57'1 0.6
2016-Feb-04 02:33N 49°12' W 123°56'2020.1
2016-Feb-04 01:34N 49°19' W 123°27'8 7.7
2016-Feb-04 00:33N 49°23' W 123°17'1918.7
2016-Feb-03 23:33N 49°15' W 123°43'10 9.4
2016-Feb-03 22:30N 49°12' W 123°57'1111.9
2016-Feb-03 21:33N 49°16' W 123°42'1817.8
2016-Feb-03 20:33N 49°23' W 123°16'9 9.4
2016-Feb-03 19:34N 49°18' W 123°29'2019.5
2016-Feb-03 18:33N 49°12' W 123°57'10 9.9
2016-Feb-03 17:33N 49°16' W 123°44'1919.0
2016-Feb-03 16:34N 49°23' W 123°16'9 8.9
2016-Feb-03 15:33N 49°18' W 123°28'2019.8
2016-Feb-03 14:34N 49°12' W 123°57'1 0.2
2016-Feb-03 09:27N 49°12' W 123°57'1 0.1
2016-Feb-03 02:34N 49°12' W 123°57'1919.2
2016-Feb-03 01:34N 49°19' W 123°29'9 9.2
2016-Feb-03 00:33N 49°23' W 123°17'1918.5
2016-Feb-02 23:33N 49°15' W 123°42'10 8.5
2016-Feb-02 22:19N 49°12' W 123°57'1216.4
2016-Feb-02 21:33N 49°17' W 123°40'1716.5
2016-Feb-02 20:33N 49°23' W 123°16'1010.3
2016-Feb-02 19:33N 49°17' W 123°30'1918.7
2016-Feb-02 18:33N 49°12' W 123°57'1111.0
2016-Feb-02 17:33N 49°16' W 123°42'1818.1
2016-Feb-02 16:34N 49°23' W 123°16'10 9.7
2016-Feb-02 15:33N 49°18' W 123°29'1919.4
2016-Feb-02 14:33N 49°12' W 123°57'0 0.0
2016-Feb-02 05:31N 49°12' W 123°57'0 0.0
2016-Feb-02 04:31N 49°12' W 123°57'0 0.0
2016-Feb-02 03:10N 49°12' W 123°57'3 4.2
2016-Feb-02 02:33N 49°13' W 123°54'2019.8
2016-Feb-02 01:33N 49°23' W 123°28'7 7.3
2016-Feb-02 00:33N 49°23' W 123°17'1918.5
2016-Feb-01 23:33N 49°15' W 123°42'1010.4
2016-Feb-01 22:33N 49°12' W 123°57'1111.3
2016-Feb-01 21:34N 49°16' W 123°42'1814.8
2016-Feb-01 20:21N 49°23' W 123°16'810.4
2016-Feb-01 19:33N 49°18' W 123°27'2020.2
2016-Feb-01 18:33N 49°12' W 123°57'9 9.2
2016-Feb-01 17:33N 49°16' W 123°44'1919.2
2016-Feb-01 16:34N 49°23' W 123°16'9 8.5
2016-Feb-01 15:33N 49°18' W 123°27'2020.0
2016-Feb-01 14:33N 49°12' W 123°56'1 0.3
2016-Feb-01 11:08N 49°12' W 123°57'1 0.2
2016-Feb-01 06:33N 49°12' W 123°57'2019.8
2016-Feb-01 05:34N 49°19' W 123°28'6 6.4
2016-Feb-01 04:34N 49°22' W 123°19'2019.9
2016-Feb-01 03:34N 49°14' W 123°48'6 6.1
2016-Feb-01 02:34N 49°12' W 123°56'2019.9
2016-Feb-01 01:34N 49°19' W 123°28'8 8.4
2016-Feb-01 00:33N 49°23' W 123°16'1918.8
2016-Jan-31 23:34N 49°15' W 123°42'10 8.9
2016-Jan-31 22:24N 49°12' W 123°57'1315.7
2016-Jan-31 21:33N 49°17' W 123°39'1615.6
2016-Jan-31 20:33N 49°23' W 123°16'1010.3
2016-Jan-31 19:33N 49°17' W 123°30'1915.6
2016-Jan-31 18:21N 49°12' W 123°57'1113.5
2016-Jan-31 17:33N 49°16' W 123°42'1818.2
2016-Jan-31 16:34N 49°23' W 123°16'9 8.6
2016-Jan-31 15:33N 49°18' W 123°28'2020.1
2016-Jan-31 14:33N 49°12' W 123°57'1 0.1
2016-Jan-31 07:13N 49°12' W 123°57'2 2.7
2016-Jan-31 06:33N 49°13' W 123°55'1918.6
2016-Jan-31 05:34N 49°19' W 123°28'8 8.1
2016-Jan-31 04:33N 49°23' W 123°18'1919.5
2016-Jan-31 03:33N 49°15' W 123°45'8 8.1
2016-Jan-31 02:34N 49°12' W 123°57'2019.8
2016-Jan-31 01:34N 49°18' W 123°28'9 8.9
2016-Jan-31 00:33N 49°23' W 123°16'1818.3
2016-Jan-30 23:33N 49°15' W 123°42'1110.5
2016-Jan-30 22:32N 49°12' W 123°57'1111.2
2016-Jan-30 21:33N 49°16' W 123°42'1818.1
2016-Jan-30 20:33N 49°23' W 123°16'10 9.6
2016-Jan-30 19:33N 49°18' W 123°29'1919.2
2016-Jan-30 18:33N 49°12' W 123°57'1010.3
2016-Jan-30 17:33N 49°16' W 123°43'1918.9
2016-Jan-30 16:33N 49°23' W 123°16'9 8.7
2016-Jan-30 15:33N 49°18' W 123°27'2019.8
2016-Jan-30 14:33N 49°12' W 123°57'1 0.9
2016-Jan-30 13:33N 49°12' W 123°57'0 0.0
2016-Jan-30 09:17N 49°12' W 123°57'0 0.0
2016-Jan-30 08:26N 49°12' W 123°57'0 0.0
2016-Jan-30 07:29N 49°12' W 123°57'9 9.8
2016-Jan-30 06:33N 49°15' W 123°45'1919.4
2016-Jan-30 05:33N 49°23' W 123°17'8 7.9
2016-Jan-30 04:33N 49°18' W 123°27'2020.2
2016-Jan-30 03:33N 49°12' W 123°57'3 2.6
2016-Jan-30 02:33N 49°14' W 123°53'2019.9
2016-Jan-30 01:33N 49°19' W 123°24'6 5.8
2016-Jan-30 00:33N 49°23' W 123°17'1918.9
2016-Jan-29 23:33N 49°15' W 123°43'10 8.7
2016-Jan-29 22:27N 49°12' W 123°57'1213.5
2016-Jan-29 21:33N 49°17' W 123°41'1717.0
2016-Jan-29 20:33N 49°23' W 123°16'9 9.0
2016-Jan-29 19:34N 49°18' W 123°28'2020.1
2016-Jan-29 18:33N 49°12' W 123°57'1010.2
2016-Jan-29 17:33N 49°16' W 123°43'1918.7
2016-Jan-29 16:33N 49°23' W 123°16'9 8.7
2016-Jan-29 15:33N 49°18' W 123°27'2020.0
2016-Jan-29 14:33N 49°12' W 123°57'1 0.8
2016-Jan-29 13:33N 49°12' W 123°57'0 0.0
2016-Jan-29 12:23N 49°12' W 123°57'0 0.0
2016-Jan-29 11:11N 49°12' W 123°57'0 0.0
2016-Jan-29 06:29N 49°12' W 123°57'0 0.0
2016-Jan-29 05:23N 49°12' W 123°57'1 0.5
2016-Jan-29 02:33N 49°13' W 123°56'2019.7
2016-Jan-29 01:33N 49°19' W 123°27'8 8.3
2016-Jan-29 00:33N 49°23' W 123°16'1918.8
2016-Jan-28 23:33N 49°16' W 123°43'1010.2
2016-Jan-28 22:33N 49°12' W 123°57'1111.3
2016-Jan-28 21:34N 49°16' W 123°42'1817.7
2016-Jan-28 20:33N 49°23' W 123°16'1010.0
2016-Jan-28 19:33N 49°18' W 123°30'1919.0
2016-Jan-28 18:33N 49°12' W 123°57'1010.4
2016-Jan-28 17:33N 49°16' W 123°43'1918.6
2016-Jan-28 16:34N 49°23' W 123°16'8 8.5
2016-Jan-28 15:34N 49°18' W 123°27'2020.0
2016-Jan-28 14:33N 49°12' W 123°57'1 0.6
2016-Jan-28 13:18N 49°12' W 123°57'0 0.0
2016-Jan-28 11:33N 49°12' W 123°57'0 0.0
2016-Jan-28 08:18N 49°12' W 123°57'0 0.0
2016-Jan-28 07:24N 49°12' W 123°57'0 0.0
2016-Jan-28 05:30N 49°12' W 123°57'0 0.0
2016-Jan-28 04:09N 49°12' W 123°57'1 0.6
2016-Jan-28 02:33N 49°12' W 123°56'2020.1
2016-Jan-28 01:33N 49°19' W 123°27'8 8.1
2016-Jan-28 00:33N 49°23' W 123°17'1918.9
2016-Jan-27 23:33N 49°15' W 123°43'10 9.9
2016-Jan-27 22:33N 49°12' W 123°57'1111.2
2016-Jan-27 21:34N 49°17' W 123°42'1817.8
2016-Jan-27 20:33N 49°23' W 123°16'  
Track history (hours):
 
Tides and Currents Weather Stations Pressure Air Temp Water Temp Dewpoint Dewpoint Depression Visibility Wind Speed Wind Dir Waves Ship Positions

Queen Of Cowichan

Last reported at 2016-Feb-06 20:33 UTC. Time now 2016-Feb-06 20:47 UTC.
Position N 49°23' W 123°16'.

Length 139 m; draft 5.5 m.

Type: Passenger vessel. MMSI: 316001251.

Date/timePositionNaut miles runAvg speedWind from/ knotsBaromVisibWave heightAir tempDewpointWater temp
2016-Feb-06 20:33N 49°23' W 123°16'1413.6
2016-Feb-06 19:34N 49°17' W 123°35'1511.7
2016-Feb-06 18:15N 49°12' W 123°57'1216.9
2016-Feb-06 17:33N 49°16' W 123°41'1717.4
2016-Feb-06 16:33N 49°23' W 123°16'9 8.6
2016-Feb-06 15:34N 49°18' W 123°27'2020.1
2016-Feb-06 14:33N 49°12' W 123°57'1 0.6
2016-Feb-06 13:30N 49°12' W 123°57'0 0.0
2016-Feb-06 12:24N 49°12' W 123°57'0 0.0
2016-Feb-06 11:33N 49°12' W 123°57'0 0.0
2016-Feb-06 10:30N 49°12' W 123°57'0 0.0
2016-Feb-06 09:12N 49°12' W 123°57'0 0.0
2016-Feb-06 08:24N 49°12' W 123°57'0 0.0
2016-Feb-06 07:26N 49°12' W 123°57'1415.7
2016-Feb-06 06:33N 49°17' W 123°38'1515.1
2016-Feb-06 05:34N 49°23' W 123°16'1110.5
2016-Feb-06 04:34N 49°18' W 123°31'1818.4
2016-Feb-06 03:33N 49°12' W 123°57'4 3.7
2016-Feb-06 02:33N 49°14' W 123°53'2019.6
2016-Feb-06 01:34N 49°19' W 123°24'6 6.1
2016-Feb-06 00:33N 49°23' W 123°17'1918.6
2016-Feb-05 23:34N 49°15' W 123°42'1010.4
2016-Feb-05 22:33N 49°12' W 123°57'1615.9
2016-Feb-05 21:33N 49°18' W 123°35'1313.0
2016-Feb-05 20:33N 49°23' W 123°16'1313.0
2016-Feb-05 19:34N 49°17' W 123°34'1616.0
2016-Feb-05 18:33N 49°12' W 123°57'1211.9
2016-Feb-05 17:33N 49°16' W 123°41'1717.1
2016-Feb-05 16:33N 49°23' W 123°16'9 8.8
2016-Feb-05 15:34N 49°18' W 123°28'1919.4
2016-Feb-05 14:33N 49°12' W 123°56'1 0.9
2016-Feb-05 13:21N 49°12' W 123°57'0 0.0
2016-Feb-05 12:33N 49°12' W 123°57'0 0.0
2016-Feb-05 11:33N 49°12' W 123°57'0 0.0
2016-Feb-05 10:33N 49°12' W 123°57'0 0.0
2016-Feb-05 09:33N 49°12' W 123°57'0 0.0
2016-Feb-05 08:33N 49°12' W 123°57'0 0.0
2016-Feb-05 07:33N 49°12' W 123°57'0 0.0
2016-Feb-05 05:27N 49°12' W 123°57'0 0.0
2016-Feb-05 04:27N 49°12' W 123°57'0 0.0
2016-Feb-05 03:33N 49°12' W 123°57'2 1.6
2016-Feb-05 02:34N 49°13' W 123°55'2019.8
2016-Feb-05 01:33N 49°19' W 123°27'8 8.0
2016-Feb-05 00:33N 49°23' W 123°17'1918.6
2016-Feb-04 23:33N 49°15' W 123°42'10 8.7
2016-Feb-04 22:22N 49°12' W 123°57'1214.7
2016-Feb-04 21:34N 49°17' W 123°41'1717.1
2016-Feb-04 20:33N 49°23' W 123°16'9 9.3
2016-Feb-04 19:33N 49°18' W 123°28'1919.5
2016-Feb-04 18:33N 49°12' W 123°57'9 9.5
2016-Feb-04 17:33N 49°16' W 123°44'1919.2
2016-Feb-04 16:34N 49°23' W 123°16'9 8.7
2016-Feb-04 15:33N 49°18' W 123°27'2020.0
2016-Feb-04 14:33N 49°12' W 123°57'1 0.1
2016-Feb-04 04:26N 49°12' W 123°57'1 0.6
2016-Feb-04 02:33N 49°12' W 123°56'2020.1
2016-Feb-04 01:34N 49°19' W 123°27'8 7.7
2016-Feb-04 00:33N 49°23' W 123°17'1918.7
2016-Feb-03 23:33N 49°15' W 123°43'10 9.4
2016-Feb-03 22:30N 49°12' W 123°57'1111.9
2016-Feb-03 21:33N 49°16' W 123°42'1817.8
2016-Feb-03 20:33N 49°23' W 123°16'9 9.4
2016-Feb-03 19:34N 49°18' W 123°29'2019.5
2016-Feb-03 18:33N 49°12' W 123°57'10 9.9
2016-Feb-03 17:33N 49°16' W 123°44'1919.0
2016-Feb-03 16:34N 49°23' W 123°16'9 8.9
2016-Feb-03 15:33N 49°18' W 123°28'2019.8
2016-Feb-03 14:34N 49°12' W 123°57'1 0.2
2016-Feb-03 09:27N 49°12' W 123°57'1 0.1
2016-Feb-03 02:34N 49°12' W 123°57'1919.2
2016-Feb-03 01:34N 49°19' W 123°29'9 9.2
2016-Feb-03 00:33N 49°23' W 123°17'1918.5
2016-Feb-02 23:33N 49°15' W 123°42'10 8.5
2016-Feb-02 22:19N 49°12' W 123°57'1216.4
2016-Feb-02 21:33N 49°17' W 123°40'1716.5
2016-Feb-02 20:33N 49°23' W 123°16'1010.3
2016-Feb-02 19:33N 49°17' W 123°30'1918.7
2016-Feb-02 18:33N 49°12' W 123°57'1111.0
2016-Feb-02 17:33N 49°16' W 123°42'1818.1
2016-Feb-02 16:34N 49°23' W 123°16'10 9.7
2016-Feb-02 15:33N 49°18' W 123°29'1919.4
2016-Feb-02 14:33N 49°12' W 123°57'0 0.0
2016-Feb-02 05:31N 49°12' W 123°57'0 0.0
2016-Feb-02 04:31N 49°12' W 123°57'0 0.0
2016-Feb-02 03:10N 49°12' W 123°57'3 4.2
2016-Feb-02 02:33N 49°13' W 123°54'2019.8
2016-Feb-02 01:33N 49°23' W 123°28'7 7.3
2016-Feb-02 00:33N 49°23' W 123°17'1918.5
2016-Feb-01 23:33N 49°15' W 123°42'1010.4
2016-Feb-01 22:33N 49°12' W 123°57'1111.3
2016-Feb-01 21:34N 49°16' W 123°42'1814.8
2016-Feb-01 20:21N 49°23' W 123°16'810.4
2016-Feb-01 19:33N 49°18' W 123°27'2020.2
2016-Feb-01 18:33N 49°12' W 123°57'9 9.2
2016-Feb-01 17:33N 49°16' W 123°44'1919.2
2016-Feb-01 16:34N 49°23' W 123°16'9 8.5
2016-Feb-01 15:33N 49°18' W 123°27'2020.0
2016-Feb-01 14:33N 49°12' W 123°56'1 0.3
2016-Feb-01 11:08N 49°12' W 123°57'1 0.2
2016-Feb-01 06:33N 49°12' W 123°57'2019.8
2016-Feb-01 05:34N 49°19' W 123°28'6 6.4
2016-Feb-01 04:34N 49°22' W 123°19'2019.9
2016-Feb-01 03:34N 49°14' W 123°48'6 6.1
2016-Feb-01 02:34N 49°12' W 123°56'2019.9
2016-Feb-01 01:34N 49°19' W 123°28'8 8.4
2016-Feb-01 00:33N 49°23' W 123°16'1918.8
2016-Jan-31 23:34N 49°15' W 123°42'10 8.9
2016-Jan-31 22:24N 49°12' W 123°57'1315.7
2016-Jan-31 21:33N 49°17' W 123°39'1615.6
2016-Jan-31 20:33N 49°23' W 123°16'1010.3
2016-Jan-31 19:33N 49°17' W 123°30'1915.6
2016-Jan-31 18:21N 49°12' W 123°57'1113.5
2016-Jan-31 17:33N 49°16' W 123°42'1818.2
2016-Jan-31 16:34N 49°23' W 123°16'9 8.6
2016-Jan-31 15:33N 49°18' W 123°28'2020.1
2016-Jan-31 14:33N 49°12' W 123°57'1 0.1
2016-Jan-31 07:13N 49°12' W 123°57'2 2.7
2016-Jan-31 06:33N 49°13' W 123°55'1918.6
2016-Jan-31 05:34N 49°19' W 123°28'8 8.1
2016-Jan-31 04:33N 49°23' W 123°18'1919.5
2016-Jan-31 03:33N 49°15' W 123°45'8 8.1
2016-Jan-31 02:34N 49°12' W 123°57'2019.8
2016-Jan-31 01:34N 49°18' W 123°28'9 8.9
2016-Jan-31 00:33N 49°23' W 123°16'1818.3
2016-Jan-30 23:33N 49°15' W 123°42'1110.5
2016-Jan-30 22:32N 49°12' W 123°57'1111.2
2016-Jan-30 21:33N 49°16' W 123°42'1818.1
2016-Jan-30 20:33N 49°23' W 123°16'10 9.6
2016-Jan-30 19:33N 49°18' W 123°29'1919.2
2016-Jan-30 18:33N 49°12' W 123°57'1010.3
2016-Jan-30 17:33N 49°16' W 123°43'1918.9
2016-Jan-30 16:33N 49°23' W 123°16'9 8.7
2016-Jan-30 15:33N 49°18' W 123°27'2019.8
2016-Jan-30 14:33N 49°12' W 123°57'1 0.9
2016-Jan-30 13:33N 49°12' W 123°57'0 0.0
2016-Jan-30 09:17N 49°12' W 123°57'0 0.0
2016-Jan-30 08:26N 49°12' W 123°57'0 0.0
2016-Jan-30 07:29N 49°12' W 123°57'9 9.8
2016-Jan-30 06:33N 49°15' W 123°45'1919.4
2016-Jan-30 05:33N 49°23' W 123°17'8 7.9
2016-Jan-30 04:33N 49°18' W 123°27'2020.2
2016-Jan-30 03:33N 49°12' W 123°57'3 2.6
2016-Jan-30 02:33N 49°14' W 123°53'2019.9
2016-Jan-30 01:33N 49°19' W 123°24'6 5.8
2016-Jan-30 00:33N 49°23' W 123°17'1918.9
2016-Jan-29 23:33N 49°15' W 123°43'10 8.7
2016-Jan-29 22:27N 49°12' W 123°57'1213.5
2016-Jan-29 21:33N 49°17' W 123°41'1717.0
2016-Jan-29 20:33N 49°23' W 123°16'9 9.0
2016-Jan-29 19:34N 49°18' W 123°28'2020.1
2016-Jan-29 18:33N 49°12' W 123°57'1010.2
2016-Jan-29 17:33N 49°16' W 123°43'1918.7
2016-Jan-29 16:33N 49°23' W 123°16'9 8.7
2016-Jan-29 15:33N 49°18' W 123°27'2020.0
2016-Jan-29 14:33N 49°12' W 123°57'1 0.8
2016-Jan-29 13:33N 49°12' W 123°57'0 0.0
2016-Jan-29 12:23N 49°12' W 123°57'0 0.0
2016-Jan-29 11:11N 49°12' W 123°57'0 0.0
2016-Jan-29 06:29N 49°12' W 123°57'0 0.0
2016-Jan-29 05:23N 49°12' W 123°57'1 0.5
2016-Jan-29 02:33N 49°13' W 123°56'2019.7
2016-Jan-29 01:33N 49°19' W 123°27'8 8.3
2016-Jan-29 00:33N 49°23' W 123°16'1918.8
2016-Jan-28 23:33N 49°16' W 123°43'1010.2
2016-Jan-28 22:33N 49°12' W 123°57'1111.3
2016-Jan-28 21:34N 49°16' W 123°42'1817.7
2016-Jan-28 20:33N 49°23' W 123°16'1010.0
2016-Jan-28 19:33N 49°18' W 123°30'1919.0
2016-Jan-28 18:33N 49°12' W 123°57'1010.4
2016-Jan-28 17:33N 49°16' W 123°43'1918.6
2016-Jan-28 16:34N 49°23' W 123°16'8 8.5
2016-Jan-28 15:34N 49°18' W 123°27'2020.0
2016-Jan-28 14:33N 49°12' W 123°57'1 0.6
2016-Jan-28 13:18N 49°12' W 123°57'0 0.0
2016-Jan-28 11:33N 49°12' W 123°57'0 0.0
2016-Jan-28 08:18N 49°12' W 123°57'0 0.0
2016-Jan-28 07:24N 49°12' W 123°57'0 0.0
2016-Jan-28 05:30N 49°12' W 123°57'0 0.0
2016-Jan-28 04:09N 49°12' W 123°57'1 0.6
2016-Jan-28 02:33N 49°12' W 123°56'2020.1
2016-Jan-28 01:33N 49°19' W 123°27'8 8.1
2016-Jan-28 00:33N 49°23' W 123°17'1918.9
2016-Jan-27 23:33N 49°15' W 123°43'10 9.9
2016-Jan-27 22:33N 49°12' W 123°57'1111.2
2016-Jan-27 21:34N 49°17' W 123°42'1817.8
2016-Jan-27 20:33N 49°23' W 123°16'  

Dump ship's entire track history